Terminal Aerodrome Forecast
Issued by NWS Charleston, WV

Home | Current Version | Previous Version | Text Only | Print | Product List | Glossary On
Versions: 1 2 3 4 5 6 7 8 9 10 11 12 13 14 15 16 17 18 19 20 21 22 23 24 25
906
FTUS41 KRLX 282353 CCA
TAFCRW
TAF COR
KCRW 282353Z 2900/2924 33007KT P6SM BKN025
      TEMPO 2900/2902 BKN020
     FM290200 35004KT P6SM OVC015
     FM290800 36002KT P6SM OVC008
     FM291100 36002KT 5SM BR OVC007
     FM291300 01003KT P6SM OVC015
     FM291400 02004KT P6SM BKN020
     FM291800 03005KT P6SM SCT025=

USA.gov is the U.S. government's official web portal to all federal, state and local government web resources and services.